METAR Data
IDs: Format: Raw Decoded Include TAF

Data at: 1757 UTC 21 Sep 2018

KILE 211756Z AUTO 20011G17KT 10SM SCT020 BKN026 BKN032 A2996 RMK AO2 RAB15E30 SLPNO P0000 60000 58007 FZRANO $
KILE 211656Z AUTO 16011KT 10SM BKN018 A2998 RMK AO2 SLPNO FZRANO $
KILE 211652Z AUTO 16010KT 10SM BKN018 A2998 RMK AO2 FZRANO $
KILE 211556Z AUTO 17010KT 10SM OVC013 A2998 RMK AO2 SLPNO FZRANO $
KILE 211530Z AUTO 16011KT 10SM OVC011 A2998 RMK AO2 FZRANO $
KILE 211456Z AUTO 16009KT 10SM OVC009 A2997 RMK AO2 CIG 009V013 SLPNO 53010 FZRANO $
KILE 211356Z AUTO 16007KT 10SM OVC009 A2996 RMK AO2 CIG 007V011 SLPNO FZRANO $
KILE 211344Z AUTO 16008KT 10SM OVC009 A2997 RMK AO2 CIG 007V012 FZRANO $
KILE 211318Z AUTO 15007KT 10SM OVC012 A2996 RMK AO2 FZRANO $
KILE 211256Z AUTO 14009KT 10SM BKN008 OVC013 A2994 RMK AO2 CIG 007V011 SLPNO FZRANO $
KILE 211156Z AUTO 15008KT 10SM OVC008 A2994 RMK AO2 RAE04 CIG 007V012 SLPNO P0000 60000 7//// 55000 FZRANO $
KILE 211141Z AUTO 15007KT 10SM OVC008 A2993 RMK AO2 RAE04 P0000 FZRANO $
KILE 211056Z AUTO 16007KT 10SM -RA BKN010 OVC016 A2993 RMK AO2 RAB53 SLPNO P0000 FZRANO $
KILE 211041Z AUTO 16007KT 10SM SCT008 BKN015 OVC050 A2994 RMK AO2 FZRANO $
KILE 210956Z AUTO 16008KT 10SM OVC008 A2993 RMK AO2 SLPNO FZRANO $
KILE 210856Z AUTO 16008KT 10SM OVC006 A2994 RMK AO2 CIG 005V010 SLPNO 60000 56007 FZRANO $
KILE 210833Z AUTO 16009KT 10SM OVC006 A2994 RMK AO2 CIG 004V009 FZRANO $
KILE 210756Z AUTO 16008KT 10SM OVC004 A2994 RMK AO2 RAB12E27 CIG 003V007 SLPNO P0000 FZRANO $
KILE 210656Z AUTO 16005KT 10SM OVC004 A2995 RMK AO2 RAB29E45 SLPNO P0000 FZRANO $
KILE 210556Z AUTO 15006KT 10SM OVC008 A2996 RMK AO2 SLPNO 60006 58003 FZRANO $
KILE 210543Z AUTO 15006KT 10SM OVC008 A2996 RMK AO2 CIG 007V010 FZRANO $
KILE 210525Z AUTO 15005KT 10SM BKN010 BKN016 A2996 RMK AO2 FZRANO $
KILE 210515Z AUTO 15005KT 10SM FEW010 SCT016 A2997 RMK AO2 FZRANO $
KILE 210456Z AUTO 14005KT 10SM FEW010 BKN018 A2997 RMK AO2 SLPNO FZRANO $
KILE 210449Z AUTO 15004KT 10SM FEW010 BKN018 BKN075 A2997 RMK AO2 FZRANO $
KILE 210356Z AUTO 14007KT 10SM SCT085 A2997 RMK AO2 SLPNO FZRANO $
KILE 210256Z AUTO 12005KT 10SM OVC070 A2996 RMK AO2 RAE02B43E53 SLPNO P0000 60006 51007 FZRANO $
KILE 210156Z AUTO 08004KT 10SM -RA OVC065 A2996 RMK AO2 RAB09UPB18E20 SLPNO P0001 FZRANO $
KILE 210056Z AUTO 10004KT 10SM FEW010 SCT016 OVC070 A2995 RMK AO2 RAE45 SLPNO P0005 FZRANO TSNO $
KILE 210053Z AUTO 10005KT 10SM SCT010 SCT016 OVC070 A2995 RMK AO2 RAE45 P0005 FZRANO $
KILE 210033Z AUTO 10006KT 10SM -RA BKN010 OVC016 A2994 RMK AO2 CIG 008V013 P0005 FZRANO $
KILE 210013Z AUTO 13006KT 6SM RA FEW008 BKN016 OVC032 A2995 RMK AO2 LTG DSNT E P0003 FZRANO $
KILE 202356Z AUTO 14007KT 10SM -RA FEW013 BKN018 OVC033 A2994 RMK AO2 LTG DSNT E RAE02B29 SLPNO P0005 6//// 53008 FZRANO $
KILE 202256Z AUTO 23009KT 10SM -RA FEW025 OVC040 A2992 RMK AO2 LTG DSNT SE TSE46 SLPNO P0022 FZRANO $
KILE 202156Z AUTO 00000KT 8SM TSRA CLR 27/24 A2992 RMK AO2 LTG DSNT SE AND NW TSB30E43B45RAB47 SLP135 P0000 T02670239
KILE 202145Z AUTO 12004KT 10SM VCTS CLR 27/23 A2991 RMK AO2 LTG DSNT ALQDS TSB30E43B45
KILE 202141Z AUTO 12007KT 10SM VCTS CLR 27/23 A2991 RMK AO2 LTG DSNT SE-W TSB30
KILE 202056Z AUTO 14009KT 10SM CLR 27/24 A2992 RMK AO2 LTG DSNT SW RAE1959 SLP136 P0000 6//// T02720239 58014
KILE 201956Z AUTO 08006KT 10SM -RA FEW025 SCT032 BKN050 23/22 A2994 RMK AO2 LTG DSNT N-E TSE02B03E49 SLP143 P0014 T02330222
KILE 201944Z AUTO 08004KT 10SM VCTS -RA FEW012 BKN030 OVC037 22/21 A2994 RMK AO2 LTG DSNT N-E TSE02B03 P0013
KILE 201919Z AUTO 18005KT 10SM -TSRA SCT007 BKN011 OVC018 22/21 A2997 RMK AO2 LTG DSNT ALQDS TSE02B03 P0012
KILE 201904Z AUTO VRB05KT 3SM +TSRA BR SCT007 BKN027 OVC034 21/19 A2998 RMK AO2 LTG DSNT ALQDS TSE02B03 P0011
KILE 201902Z AUTO 00000KT 2SM +RA BR FEW007 BKN027 OVC034 21/19 A2997 RMK AO2 VIS 3/4V5 TSE02 P0010
KILE 201900Z AUTO 00000KT 1SM +TSRA BR FEW007 BKN027 OVC034 21/19 A2997 RMK AO2 VIS 1/2V3 LTG DSNT ALQDS P0008
KILE 201856Z AUTO 21009G46KT 180V240 3/4SM +TSRA BR FEW020 BKN027 BKN035 21/19 A2998 RMK AO2 PK WND 19046/1848 LTG DSNT ALQDS TSE1758B00E14B16RAB42 SLP159 T02110189
KILE 201851Z AUTO 16033G46KT 1SM +TSRA BR FEW020 BKN029 BKN037 22/20 A2999 RMK AO2 PK WND 19046/1848 LTG DSNT ALQDS TSE1758B00E14B16RAB42 PRESRR P0000
KILE 201848Z AUTO 16026G46KT 3SM TSRA BKN029 BKN037 24/21 A2996 RMK AO2 PK WND 19046/1848 LTG DSNT SE-W TSE1758B00E14B16RAB42 P0000
KILE 201816Z AUTO 14010KT 10SM VCTS SCT032 30/24 A2996 RMK AO2 LTG DSNT E-SW TSE1758B00E14B16
KILE 201812Z AUTO 13010KT 10SM VCTS FEW029 SCT037 29/24 A2996 RMK AO2 LTG DSNT SE-SW TSE1758B00
KILE 201800Z AUTO 13009G17KT 10SM VCTS BKN027 BKN035 31/24 A2996 RMK AO2 LTG DSNT SE AND SW TSE1758B00
KILE 201756Z AUTO 14010G17KT 10SM VCTS BKN027 OVC035 31/24 A2996 RMK AO2 LTG DSNT SE AND SW TSB56 SLP147 T03060239 10306 20228 58009
KILE 201656Z AUTO 14010KT 10SM BKN026 29/24 A2999 RMK AO2 SLP158 T02940239
KILE 201556Z AUTO 19007KT 10SM SCT017 BKN024 28/24 A3000 RMK AO2 SLP160 T02830239
KILE 201533Z AUTO 18008KT 10SM BKN019 28/24 A3000 RMK AO2
KILE 201456Z AUTO 17008G15KT 10SM CLR 27/24 A2999 RMK AO2 SLP158 T02670239 51014
KILE 201356Z AUTO 17007KT 10SM FEW007 25/24 A2998 RMK AO2 SLP154 T02500239
KILE 201256Z AUTO 14004KT 10SM CLR 24/23 A2997 RMK AO2 SLP150 T02390228
KILE 201156Z AUTO 19004KT 10SM SCT012 23/22 A2995 RMK AO2 SLP143 T02280222 10250 20228 53000
KILE 201056Z AUTO 16004KT 10SM CLR 23/22 A2994 RMK AO2 SLP141 T02330222
KILE 200956Z AUTO 18005KT 10SM CLR 24/22 A2994 RMK AO2 SLP139 T02390222
KILE 200856Z AUTO 17004KT 10SM CLR 24/22 A2995 RMK AO2 SLP141 T02390222 58009
KILE 200756Z AUTO 18004KT 10SM CLR 24/22 A2996 RMK AO2 SLP145 T02390222
KILE 200656Z AUTO 18008KT 10SM CLR 25/22 A2997 RMK AO2 SLP147 T02500222